Change Date:Time:

Metar of : 4/23/2018 1300UTC
Metar
SAPK OPKC 231300
OPSK 231300Z 23004KT 4000 HZ NSC 39/09 Q1005 NOSIG
OPBKR 13002KT CAVOK 37/07 16%
OPBR 27002KT CAVOK 37/05 14%
OPBW 23009KT 4000 Hz NSC 38/09 Q1006 17%
OPBW(CITY) 27004KT 3500 HZ NSC 36/08 18%
OPCK 31002KT 9999 NSC 32/10 26%
OPDG 13004KT 7000 NSC 36/21 Q1008 42%
OPDU 231300Z 18002KT 7000 HZ NSC 38/10 RH 19%
OPFA 31004KT 8000 NSC 36/06 Q1007 BECMG 7000 RH 16%
OPGD 231300Z 23012KT 6000 NSC 30/17 Q1010 RH44%
OPGP 00000KT 8000 NSC 26/11 38%
OPGW 31008KT CAVOK 34/13 29%
OPHQ 00000KT CAVOK 31/07 Q1006 RH 23%
OPJBD 00000kt CAVOK 37/14 26%
OPJD 231300Z 00000KT 6000 HZ NSC 40/05 Q1006 RH12%
OPJG 00000KT CAVOK 35/12 Q1006 24%
OPJM 00000KT CAVOK 34/15 RH 33%
OPKAD 00000KT 8000 NSC 38/09 18%
OPKC 231300Z 23010KT 7000 NSC 35/09 Q1008 RH20%
OPKD 231300Z 21006KT 6000 NSC 38/14 Q1006 RH24% NO SIG
OPKE 231300Z 23002KT 6000 SKC 39/08 Q1006 RH15%
OPKL 00000KT CAVOK 31/11 30%
OPKP 00000KT 4000 HZ NSC 38/05 14%
OPKRL 00000KT 5000 HZ NSC 36/13 26%
OPKS 31002KT 5000 HZ NSC 36/10 21%
OPLA 29009KT 6000 NSC 35/12 Q1007 A29.72 BECMG 5000 RH 24%
OPLA( CITY) 23004KT 6000 NSC 35/07 Q1005 RH18%
OPLRK 231300Z 13502KT 6000 NSC 39/08 Q1007 RH15%
OPMA 00000KT CAVOK 33/11 Q1008 26%
OPMB 05002KT CAVOK 34/14 Q1005 29%
OPME 00000KT CAVOK 18/05 45%
OPMF 31002KT CAVOK 31/09 25%
OPMIT 231300Z 27006KT 6000 NSC 38/05 Q1006 RH13%
OPMJ 231300Z 18002KT 6000 NSC 39/08 Q1005 RH16% NO SIG
OPMT 00000KT 4000 HZ NSC 37/03 Q1006 NOSIG RH12%
OPNH 231300Z 23004KT 5000 HZ NSC 40/08 Q1006 RH15% NOSIG
OPNPT 00000KT 7000 NSC 36/16 30%
OPOK 00000KT 6000 NSC 36/14 Q1006 28%
OPPDN 231300Z 31002kt 5000 Nsc 39/17 Q1007 RH 27%
OPPG 231300z 23010kt 8000 skc 34/10 Q1014 rh23%
OPQT 31010KT CAVOK NSC 28/01 Q1018 RH.18%
OPRK 23002KT 4000 HZ NSC 38/14 Q1006 24%
OPRRI 231300Z 00000KT 1000 NSC 39/07 P1P1 9985
OPRT 00000KT CAVOK 24/05 Q1020 39%
OPSG 00000KT 8000 NSC 35/17 35%
OPSKT 00000KT 6000 NSC 35/13 RH28%
OPST 27004KT 5000 HZ NSC 34/10 Q1006 NOSIG RH23%
OPSW 00000KT 5000 HZ NSC 35/09 Q1006 20%
OPTJM 231300Z 23002KT 6000 SKC 38/14 Q1008 RH 24%
OPTS 00000KT 6000 NSC 36/16 30%
OPTU 231300Z 31008KT CAVOK 38/04 Q1008 RH12%
OPUG 00000KT 5000 HZ NSC 33/11 26%
CodeW.DirSpeedVisibilityCloud ConditionTempPressureHumidityStation
OPBKR13002KTClear37oC16%Bhakkar
OPBR27002KTClear37oC14%Bahawalnagar
OPBW23009KT4000mHaze38oC1006hp17%Bahawalpur
OPCK31002KT9999mClear32oC26%Chakwal
OPDG13004KT7000mClear36oC1008hp42%D-G-KHAN
OPFA31004KT8000mClear36oC1007hp16%Faisalabad
OPGD23012KT6000mClear30oC44%Gawadar
OPGP00000KT8000mClear26oC38%GARHI DOPATTA
OPGW31008KTClear34oC29%Gujranwala
OPHQ00000KTClear31oC1006hp23%Islamabad
OPJBD00000KTClear37oC26%Joharabad
OPJG00000KTClear35oC1006hp24%Jhang
OPJM00000KTClear34oC33%Jhelum
OPKAD00000KT8000mClear38oC18%KOT ADDU
OPKC23010KT7000mClear35oC20%KARACHI A/P
OPKD21006KT6000mClear38oCHyderabad
OPKE23002KT6000mClear39oC15%Chhor
OPKL00000KTClear31oC30%Kotli
OPKP00000KT4000mHaze38oC14%Khanpur
OPKRL00000KT5000mHaze36oC26%KAROR (LAYYAH)
OPKS31002KT5000mHaze36oC21%Kasur
OPLA29009KT6000mClear35oC1007hp24%LAHORE A/P
OPMA00000KTClear33oC1008hp26%Mangla
OPMB05002KTClear34oC1005hp29%MANDI BAHUDDIN
OPME00000KTClear18oC45%Murree
OPMF31002KTClear31oC25%MUZAFFARABAD
OPMJ18002KT6000mClear39oCMOHENJO DARO
OPMT00000KT4000mHaze37oC1006hp12%Multan
OPNH23004KT5000mHaze40oCSh Benazirabad
OPNPT00000KT7000mClear36oC30%NOOR PUR THAL
OPOK00000KT6000mClear36oC1006hp28%Okara
OPPG23010KT8000mClear34oC23%Panjgur
OPQT31010KTClear28oC1018hp18%Quetta
OPRK23002KT4000mHaze38oC1006hp24%R-Y-KHAN
OPRT00000KTClear24oC1020hp39%Rawalakot
OPSK23004KT4000mHaze39oC1005hpSukkur
OPST27004KT5000mHaze34oC1006hp23%SIAL A/P SIALKOT
OPSW00000KT5000mHaze35oC1006hp20%Sahiwal
OPTS00000KT6000mClear36oC30%T.T. SINGH
OPTU31008KTClear38oC1008hp12%Turbat
OPUG00000KT5000mHaze33oC26%Gujrat